sensor_id;sensor_type;location;lat;lon;timestamp;P1;durP1;ratioP1;P2;durP2;ratioP2
77085;SDS011;66014;53.134;18.006;2023-09-12T00:01:33;21.30;;;10.70;;
77085;SDS011;66014;53.134;18.006;2023-09-12T00:03:59;16.70;;;9.90;;
77085;SDS011;66014;53.134;18.006;2023-09-12T00:06:25;16.30;;;10.60;;
77085;SDS011;66014;53.134;18.006;2023-09-12T00:08:51;14.60;;;10.70;;
77085;SDS011;66014;53.134;18.006;2023-09-12T00:11:17;15.90;;;10.50;;
77085;SDS011;66014;53.134;18.006;2023-09-12T00:13:45;15.00;;;10.80;;
77085;SDS011;66014;53.134;18.006;2023-09-12T00:19:43;15.10;;;10.60;;
77085;SDS011;66014;53.134;18.006;2023-09-12T00:22:24;18.50;;;10.80;;
77085;SDS011;66014;53.134;18.006;2023-09-12T00:24:50;17.40;;;11.30;;
77085;SDS011;66014;53.134;18.006;2023-09-12T00:27:16;16.50;;;11.60;;
77085;SDS011;66014;53.134;18.006;2023-09-12T00:29:42;16.30;;;11.00;;
77085;SDS011;66014;53.134;18.006;2023-09-12T00:32:08;17.10;;;11.60;;
77085;SDS011;66014;53.134;18.006;2023-09-12T00:34:34;14.90;;;10.80;;
77085;SDS011;66014;53.134;18.006;2023-09-12T00:37:00;17.30;;;11.20;;
77085;SDS011;66014;53.134;18.006;2023-09-12T00:42:42;15.90;;;10.90;;
77085;SDS011;66014;53.134;18.006;2023-09-12T00:45:09;23.90;;;11.60;;
77085;SDS011;66014;53.134;18.006;2023-09-12T00:47:35;16.60;;;12.50;;
77085;SDS011;66014;53.134;18.006;2023-09-12T00:50:01;14.50;;;10.70;;
77085;SDS011;66014;53.134;18.006;2023-09-12T00:52:31;15.10;;;10.80;;
77085;SDS011;66014;53.134;18.006;2023-09-12T00:57:27;16.50;;;11.00;;
77085;SDS011;66014;53.134;18.006;2023-09-12T00:59:55;18.40;;;11.60;;
77085;SDS011;66014;53.134;18.006;2023-09-12T01:02:26;15.90;;;10.90;;
77085;SDS011;66014;53.134;18.006;2023-09-12T01:09:27;19.70;;;11.70;;
77085;SDS011;66014;53.134;18.006;2023-09-12T01:11:54;19.70;;;11.60;;
77085;SDS011;66014;53.134;18.006;2023-09-12T01:14:20;16.90;;;10.90;;
77085;SDS011;66014;53.134;18.006;2023-09-12T01:16:46;17.90;;;10.50;;
77085;SDS011;66014;53.134;18.006;2023-09-12T01:19:12;17.50;;;11.00;;
77085;SDS011;66014;53.134;18.006;2023-09-12T01:27:25;15.20;;;10.90;;
77085;SDS011;66014;53.134;18.006;2023-09-12T01:29:59;15.70;;;11.20;;
77085;SDS011;66014;53.134;18.006;2023-09-12T01:32:29;14.80;;;11.10;;
77085;SDS011;66014;53.134;18.006;2023-09-12T01:34:56;15.80;;;10.80;;
77085;SDS011;66014;53.134;18.006;2023-09-12T01:37:22;13.60;;;10.50;;
77085;SDS011;66014;53.134;18.006;2023-09-12T01:39:48;14.90;;;10.80;;
77085;SDS011;66014;53.134;18.006;2023-09-12T01:42:15;15.20;;;10.50;;
77085;SDS011;66014;53.134;18.006;2023-09-12T01:44:45;15.40;;;10.70;;
77085;SDS011;66014;53.134;18.006;2023-09-12T01:49:44;17.00;;;11.00;;
77085;SDS011;66014;53.134;18.006;2023-09-12T01:52:15;18.40;;;10.60;;
77085;SDS011;66014;53.134;18.006;2023-09-12T01:54:42;14.80;;;10.80;;
77085;SDS011;66014;53.134;18.006;2023-09-12T01:57:08;14.80;;;10.30;;
77085;SDS011;66014;53.134;18.006;2023-09-12T01:59:34;18.10;;;11.70;;
77085;SDS011;66014;53.134;18.006;2023-09-12T02:02:00;17.10;;;11.10;;
77085;SDS011;66014;53.134;18.006;2023-09-12T02:04:26;16.90;;;10.90;;
77085;SDS011;66014;53.134;18.006;2023-09-12T02:06:53;17.50;;;11.30;;
77085;SDS011;66014;53.134;18.006;2023-09-12T02:09:19;19.10;;;11.80;;
77085;SDS011;66014;53.134;18.006;2023-09-12T02:11:46;17.20;;;10.90;;
77085;SDS011;66014;53.134;18.006;2023-09-12T02:14:16;19.70;;;11.50;;
77085;SDS011;66014;53.134;18.006;2023-09-12T02:16:43;16.30;;;11.30;;
77085;SDS011;66014;53.134;18.006;2023-09-12T02:19:12;17.80;;;11.50;;
77085;SDS011;66014;53.134;18.006;2023-09-12T02:21:38;16.70;;;11.20;;
77085;SDS011;66014;53.134;18.006;2023-09-12T02:24:04;18.80;;;11.60;;
77085;SDS011;66014;53.134;18.006;2023-09-12T02:26:30;18.60;;;10.90;;
77085;SDS011;66014;53.134;18.006;2023-09-12T02:28:57;15.80;;;11.50;;
77085;SDS011;66014;53.134;18.006;2023-09-12T02:31:22;20.30;;;11.50;;
77085;SDS011;66014;53.134;18.006;2023-09-12T02:33:49;16.50;;;11.30;;
77085;SDS011;66014;53.134;18.006;2023-09-12T02:36:15;17.20;;;11.60;;
77085;SDS011;66014;53.134;18.006;2023-09-12T02:38:40;15.40;;;11.40;;
77085;SDS011;66014;53.134;18.006;2023-09-12T02:41:06;17.80;;;11.80;;
77085;SDS011;66014;53.134;18.006;2023-09-12T02:43:34;17.90;;;11.40;;
77085;SDS011;66014;53.134;18.006;2023-09-12T02:46:00;17.20;;;12.10;;
77085;SDS011;66014;53.134;18.006;2023-09-12T02:48:26;21.90;;;11.90;;
77085;SDS011;66014;53.134;18.006;2023-09-12T02:50:52;18.30;;;11.40;;
77085;SDS011;66014;53.134;18.006;2023-09-12T02:53:18;15.70;;;11.20;;
77085;SDS011;66014;53.134;18.006;2023-09-12T02:55:51;20.70;;;12.70;;
77085;SDS011;66014;53.134;18.006;2023-09-12T02:58:17;18.30;;;13.80;;
77085;SDS011;66014;53.134;18.006;2023-09-12T03:00:53;19.20;;;12.00;;
77085;SDS011;66014;53.134;18.006;2023-09-12T03:03:20;30.10;;;19.10;;
77085;SDS011;66014;53.134;18.006;2023-09-12T03:05:46;23.40;;;17.00;;
77085;SDS011;66014;53.134;18.006;2023-09-12T03:08:12;27.10;;;18.50;;
77085;SDS011;66014;53.134;18.006;2023-09-12T03:10:38;25.80;;;16.30;;
77085;SDS011;66014;53.134;18.006;2023-09-12T03:13:03;20.20;;;14.00;;
77085;SDS011;66014;53.134;18.006;2023-09-12T03:15:29;19.20;;;13.10;;
77085;SDS011;66014;53.134;18.006;2023-09-12T03:17:55;18.40;;;12.70;;
77085;SDS011;66014;53.134;18.006;2023-09-12T03:20:21;18.00;;;12.20;;
77085;SDS011;66014;53.134;18.006;2023-09-12T03:22:47;19.50;;;12.50;;
77085;SDS011;66014;53.134;18.006;2023-09-12T03:25:13;18.00;;;12.10;;
77085;SDS011;66014;53.134;18.006;2023-09-12T03:27:39;17.90;;;13.30;;
77085;SDS011;66014;53.134;18.006;2023-09-12T03:30:05;19.90;;;13.40;;
77085;SDS011;66014;53.134;18.006;2023-09-12T03:32:39;21.70;;;12.40;;
77085;SDS011;66014;53.134;18.006;2023-09-12T03:35:05;18.10;;;12.30;;
77085;SDS011;66014;53.134;18.006;2023-09-12T03:37:31;20.40;;;13.50;;
77085;SDS011;66014;53.134;18.006;2023-09-12T03:39:57;19.10;;;12.50;;
77085;SDS011;66014;53.134;18.006;2023-09-12T03:42:23;21.00;;;12.40;;
77085;SDS011;66014;53.134;18.006;2023-09-12T03:44:49;21.60;;;13.20;;
77085;SDS011;66014;53.134;18.006;2023-09-12T03:47:15;25.90;;;12.70;;
77085;SDS011;66014;53.134;18.006;2023-09-12T03:49:41;18.30;;;12.70;;
77085;SDS011;66014;53.134;18.006;2023-09-12T03:52:07;24.10;;;12.40;;
77085;SDS011;66014;53.134;18.006;2023-09-12T03:54:33;24.00;;;13.10;;
77085;SDS011;66014;53.134;18.006;2023-09-12T03:57:01;20.30;;;12.60;;
77085;SDS011;66014;53.134;18.006;2023-09-12T03:59:27;18.70;;;12.00;;
77085;SDS011;66014;53.134;18.006;2023-09-12T04:01:53;21.60;;;12.30;;
77085;SDS011;66014;53.134;18.006;2023-09-12T04:04:19;18.40;;;13.20;;
77085;SDS011;66014;53.134;18.006;2023-09-12T04:06:45;22.70;;;12.10;;
77085;SDS011;66014;53.134;18.006;2023-09-12T04:09:12;18.60;;;11.90;;
77085;SDS011;66014;53.134;18.006;2023-09-12T04:11:50;25.30;;;14.00;;
77085;SDS011;66014;53.134;18.006;2023-09-12T04:14:17;21.40;;;13.30;;
77085;SDS011;66014;53.134;18.006;2023-09-12T04:16:42;21.10;;;12.40;;
77085;SDS011;66014;53.134;18.006;2023-09-12T04:19:08;17.70;;;13.00;;
77085;SDS011;66014;53.134;18.006;2023-09-12T04:21:34;18.50;;;12.60;;
77085;SDS011;66014;53.134;18.006;2023-09-12T04:24:02;22.00;;;12.10;;
77085;SDS011;66014;53.134;18.006;2023-09-12T04:26:28;20.70;;;11.80;;
77085;SDS011;66014;53.134;18.006;2023-09-12T04:28:54;17.20;;;12.10;;
77085;SDS011;66014;53.134;18.006;2023-09-12T04:31:21;20.80;;;12.10;;
77085;SDS011;66014;53.134;18.006;2023-09-12T04:33:50;18.90;;;12.40;;
77085;SDS011;66014;53.134;18.006;2023-09-12T04:36:23;19.40;;;12.20;;
77085;SDS011;66014;53.134;18.006;2023-09-12T04:38:48;20.60;;;11.90;;
77085;SDS011;66014;53.134;18.006;2023-09-12T04:41:14;24.50;;;12.80;;
77085;SDS011;66014;53.134;18.006;2023-09-12T04:43:44;22.70;;;12.70;;
77085;SDS011;66014;53.134;18.006;2023-09-12T04:46:10;20.60;;;12.40;;
77085;SDS011;66014;53.134;18.006;2023-09-12T04:48:42;23.70;;;12.50;;
77085;SDS011;66014;53.134;18.006;2023-09-12T04:51:09;24.10;;;12.50;;
77085;SDS011;66014;53.134;18.006;2023-09-12T04:53:34;19.80;;;12.40;;
77085;SDS011;66014;53.134;18.006;2023-09-12T04:56:01;22.40;;;13.70;;
77085;SDS011;66014;53.134;18.006;2023-09-12T04:58:28;24.30;;;13.40;;
77085;SDS011;66014;53.134;18.006;2023-09-12T05:00:54;24.40;;;12.70;;
77085;SDS011;66014;53.134;18.006;2023-09-12T05:03:21;21.20;;;12.70;;
77085;SDS011;66014;53.134;18.006;2023-09-12T05:05:47;19.00;;;12.30;;
77085;SDS011;66014;53.134;18.006;2023-09-12T05:08:15;21.70;;;13.10;;
77085;SDS011;66014;53.134;18.006;2023-09-12T05:10:43;22.50;;;12.60;;
77085;SDS011;66014;53.134;18.006;2023-09-12T05:13:10;25.20;;;13.00;;
77085;SDS011;66014;53.134;18.006;2023-09-12T05:15:37;23.20;;;13.70;;
77085;SDS011;66014;53.134;18.006;2023-09-12T05:18:05;26.20;;;13.90;;
77085;SDS011;66014;53.134;18.006;2023-09-12T05:20:32;22.50;;;13.40;;
77085;SDS011;66014;53.134;18.006;2023-09-12T05:26:53;26.10;;;14.10;;
77085;SDS011;66014;53.134;18.006;2023-09-12T05:29:19;24.80;;;13.50;;
77085;SDS011;66014;53.134;18.006;2023-09-12T05:31:45;23.10;;;13.80;;
77085;SDS011;66014;53.134;18.006;2023-09-12T05:34:10;26.60;;;15.10;;
77085;SDS011;66014;53.134;18.006;2023-09-12T05:36:37;20.20;;;12.60;;
77085;SDS011;66014;53.134;18.006;2023-09-12T05:39:04;21.50;;;12.80;;
77085;SDS011;66014;53.134;18.006;2023-09-12T05:41:30;19.70;;;13.20;;
77085;SDS011;66014;53.134;18.006;2023-09-12T05:43:56;25.70;;;16.20;;
77085;SDS011;66014;53.134;18.006;2023-09-12T05:46:22;23.60;;;14.10;;
77085;SDS011;66014;53.134;18.006;2023-09-12T05:48:48;24.60;;;13.10;;
77085;SDS011;66014;53.134;18.006;2023-09-12T05:51:13;19.80;;;12.70;;
77085;SDS011;66014;53.134;18.006;2023-09-12T05:53:39;30.70;;;12.70;;
77085;SDS011;66014;53.134;18.006;2023-09-12T05:56:05;22.30;;;12.10;;
77085;SDS011;66014;53.134;18.006;2023-09-12T05:58:38;21.20;;;13.20;;
77085;SDS011;66014;53.134;18.006;2023-09-12T06:01:15;22.30;;;13.80;;
77085;SDS011;66014;53.134;18.006;2023-09-12T06:03:42;23.40;;;13.90;;
77085;SDS011;66014;53.134;18.006;2023-09-12T06:06:08;25.30;;;13.70;;
77085;SDS011;66014;53.134;18.006;2023-09-12T06:08:33;30.20;;;14.20;;
77085;SDS011;66014;53.134;18.006;2023-09-12T06:10:59;30.50;;;13.60;;
77085;SDS011;66014;53.134;18.006;2023-09-12T06:13:25;28.50;;;13.60;;
77085;SDS011;66014;53.134;18.006;2023-09-12T06:15:54;34.40;;;14.20;;
77085;SDS011;66014;53.134;18.006;2023-09-12T06:18:20;28.80;;;14.20;;
77085;SDS011;66014;53.134;18.006;2023-09-12T06:20:46;24.30;;;13.40;;
77085;SDS011;66014;53.134;18.006;2023-09-12T06:23:12;32.00;;;15.20;;
77085;SDS011;66014;53.134;18.006;2023-09-12T06:25:38;28.80;;;13.90;;
77085;SDS011;66014;53.134;18.006;2023-09-12T06:28:03;21.90;;;13.10;;
77085;SDS011;66014;53.134;18.006;2023-09-12T06:30:31;32.40;;;13.30;;
77085;SDS011;66014;53.134;18.006;2023-09-12T06:32:57;23.60;;;13.10;;
77085;SDS011;66014;53.134;18.006;2023-09-12T06:35:22;22.40;;;13.40;;
77085;SDS011;66014;53.134;18.006;2023-09-12T06:37:48;22.10;;;13.10;;
77085;SDS011;66014;53.134;18.006;2023-09-12T06:40:17;20.40;;;13.00;;
77085;SDS011;66014;53.134;18.006;2023-09-12T06:42:42;21.90;;;13.80;;
77085;SDS011;66014;53.134;18.006;2023-09-12T06:45:09;22.20;;;12.90;;
77085;SDS011;66014;53.134;18.006;2023-09-12T06:47:38;18.50;;;12.30;;
77085;SDS011;66014;53.134;18.006;2023-09-12T06:50:04;19.00;;;13.60;;
77085;SDS011;66014;53.134;18.006;2023-09-12T06:52:30;19.00;;;14.00;;
77085;SDS011;66014;53.134;18.006;2023-09-12T06:54:56;20.90;;;13.10;;
77085;SDS011;66014;53.134;18.006;2023-09-12T06:57:29;18.70;;;12.90;;
77085;SDS011;66014;53.134;18.006;2023-09-12T06:59:55;20.80;;;14.80;;
77085;SDS011;66014;53.134;18.006;2023-09-12T07:02:21;20.30;;;14.10;;
77085;SDS011;66014;53.134;18.006;2023-09-12T07:04:47;19.70;;;13.80;;
77085;SDS011;66014;53.134;18.006;2023-09-12T07:07:13;21.30;;;14.80;;
77085;SDS011;66014;53.134;18.006;2023-09-12T07:09:38;19.20;;;12.30;;
77085;SDS011;66014;53.134;18.006;2023-09-12T07:12:05;20.40;;;13.30;;
77085;SDS011;66014;53.134;18.006;2023-09-12T07:14:31;17.00;;;12.40;;
77085;SDS011;66014;53.134;18.006;2023-09-12T07:16:57;18.30;;;11.30;;
77085;SDS011;66014;53.134;18.006;2023-09-12T07:19:23;19.50;;;11.90;;
77085;SDS011;66014;53.134;18.006;2023-09-12T07:21:49;13.30;;;11.40;;
77085;SDS011;66014;53.134;18.006;2023-09-12T07:24:15;16.70;;;11.70;;
77085;SDS011;66014;53.134;18.006;2023-09-12T07:26:41;16.80;;;12.00;;
77085;SDS011;66014;53.134;18.006;2023-09-12T07:29:07;12.80;;;10.30;;
77085;SDS011;66014;53.134;18.006;2023-09-12T07:31:39;17.50;;;10.80;;
77085;SDS011;66014;53.134;18.006;2023-09-12T07:34:26;16.70;;;11.20;;
77085;SDS011;66014;53.134;18.006;2023-09-12T07:36:52;15.80;;;9.50;;
77085;SDS011;66014;53.134;18.006;2023-09-12T07:39:27;13.00;;;9.20;;
77085;SDS011;66014;53.134;18.006;2023-09-12T07:42:09;18.50;;;10.30;;
77085;SDS011;66014;53.134;18.006;2023-09-12T07:44:34;15.10;;;9.90;;
77085;SDS011;66014;53.134;18.006;2023-09-12T07:47:01;15.30;;;10.20;;
77085;SDS011;66014;53.134;18.006;2023-09-12T07:49:27;14.00;;;9.40;;
77085;SDS011;66014;53.134;18.006;2023-09-12T07:52:05;13.50;;;9.70;;
77085;SDS011;66014;53.134;18.006;2023-09-12T07:54:31;15.30;;;9.30;;
77085;SDS011;66014;53.134;18.006;2023-09-12T07:56:57;16.90;;;9.20;;
77085;SDS011;66014;53.134;18.006;2023-09-12T07:59:23;15.50;;;10.10;;
77085;SDS011;66014;53.134;18.006;2023-09-12T08:01:52;14.50;;;8.80;;
77085;SDS011;66014;53.134;18.006;2023-09-12T08:04:18;11.70;;;8.50;;
77085;SDS011;66014;53.134;18.006;2023-09-12T08:06:44;15.00;;;9.40;;
77085;SDS011;66014;53.134;18.006;2023-09-12T08:09:09;11.40;;;8.80;;
77085;SDS011;66014;53.134;18.006;2023-09-12T08:11:36;9.90;;;7.60;;
77085;SDS011;66014;53.134;18.006;2023-09-12T08:14:01;11.60;;;8.10;;
77085;SDS011;66014;53.134;18.006;2023-09-12T08:16:28;13.40;;;7.40;;
77085;SDS011;66014;53.134;18.006;2023-09-12T08:18:54;11.80;;;8.10;;
77085;SDS011;66014;53.134;18.006;2023-09-12T08:21:20;10.30;;;7.00;;
77085;SDS011;66014;53.134;18.006;2023-09-12T08:23:45;10.40;;;6.70;;
77085;SDS011;66014;53.134;18.006;2023-09-12T08:26:11;11.90;;;7.10;;
77085;SDS011;66014;53.134;18.006;2023-09-12T08:28:38;8.50;;;6.20;;
77085;SDS011;66014;53.134;18.006;2023-09-12T08:31:04;9.20;;;6.40;;
77085;SDS011;66014;53.134;18.006;2023-09-12T08:33:30;8.30;;;6.40;;
77085;SDS011;66014;53.134;18.006;2023-09-12T08:35:56;7.30;;;5.90;;
77085;SDS011;66014;53.134;18.006;2023-09-12T08:38:22;10.20;;;5.70;;
77085;SDS011;66014;53.134;18.006;2023-09-12T08:40:51;8.20;;;5.30;;
77085;SDS011;66014;53.134;18.006;2023-09-12T08:43:17;9.70;;;5.80;;
77085;SDS011;66014;53.134;18.006;2023-09-12T08:45:44;11.20;;;5.20;;
77085;SDS011;66014;53.134;18.006;2023-09-12T08:48:10;8.10;;;5.10;;
77085;SDS011;66014;53.134;18.006;2023-09-12T08:57:05;7.20;;;5.50;;
77085;SDS011;66014;53.134;18.006;2023-09-12T08:59:33;9.00;;;5.70;;
77085;SDS011;66014;53.134;18.006;2023-09-12T09:02:55;11.20;;;5.40;;
77085;SDS011;66014;53.134;18.006;2023-09-12T09:05:21;8.30;;;5.30;;
77085;SDS011;66014;53.134;18.006;2023-09-12T09:11:22;6.30;;;4.90;;
77085;SDS011;66014;53.134;18.006;2023-09-12T09:14:01;8.00;;;5.00;;
77085;SDS011;66014;53.134;18.006;2023-09-12T09:19:11;7.50;;;4.90;;
77085;SDS011;66014;53.134;18.006;2023-09-12T09:21:40;8.50;;;4.80;;
77085;SDS011;66014;53.134;18.006;2023-09-12T09:24:10;8.00;;;5.50;;
77085;SDS011;66014;53.134;18.006;2023-09-12T09:29:25;6.70;;;4.40;;
77085;SDS011;66014;53.134;18.006;2023-09-12T09:32:01;5.20;;;4.50;;
77085;SDS011;66014;53.134;18.006;2023-09-12T09:34:30;5.00;;;4.10;;
77085;SDS011;66014;53.134;18.006;2023-09-12T09:36:57;7.20;;;4.60;;
77085;SDS011;66014;53.134;18.006;2023-09-12T09:39:24;6.50;;;4.60;;
77085;SDS011;66014;53.134;18.006;2023-09-12T09:41:53;6.10;;;4.40;;
77085;SDS011;66014;53.134;18.006;2023-09-12T09:44:21;7.90;;;4.50;;
77085;SDS011;66014;53.134;18.006;2023-09-12T09:46:52;5.10;;;3.70;;
77085;SDS011;66014;53.134;18.006;2023-09-12T09:49:30;7.00;;;3.90;;
77085;SDS011;66014;53.134;18.006;2023-09-12T09:51:57;5.30;;;3.80;;
77085;SDS011;66014;53.134;18.006;2023-09-12T09:54:24;6.20;;;4.40;;
77085;SDS011;66014;53.134;18.006;2023-09-12T09:56:55;9.50;;;4.60;;
77085;SDS011;66014;53.134;18.006;2023-09-12T09:59:23;4.40;;;4.00;;
77085;SDS011;66014;53.134;18.006;2023-09-12T10:01:50;6.50;;;4.50;;
77085;SDS011;66014;53.134;18.006;2023-09-12T10:04:21;4.90;;;4.20;;
77085;SDS011;66014;53.134;18.006;2023-09-12T10:06:48;5.30;;;4.10;;
77085;SDS011;66014;53.134;18.006;2023-09-12T10:09:15;5.80;;;3.70;;
77085;SDS011;66014;53.134;18.006;2023-09-12T10:12:03;5.00;;;4.40;;
77085;SDS011;66014;53.134;18.006;2023-09-12T10:14:32;5.40;;;4.30;;
77085;SDS011;66014;53.134;18.006;2023-09-12T10:17:00;5.00;;;4.40;;
77085;SDS011;66014;53.134;18.006;2023-09-12T10:19:50;5.00;;;4.10;;
77085;SDS011;66014;53.134;18.006;2023-09-12T10:25:52;6.40;;;4.60;;
77085;SDS011;66014;53.134;18.006;2023-09-12T10:28:21;6.40;;;4.90;;
77085;SDS011;66014;53.134;18.006;2023-09-12T10:30:50;6.40;;;4.60;;
77085;SDS011;66014;53.134;18.006;2023-09-12T10:33:20;8.00;;;4.20;;
77085;SDS011;66014;53.134;18.006;2023-09-12T10:35:46;5.50;;;3.90;;
77085;SDS011;66014;53.134;18.006;2023-09-12T10:38:12;6.10;;;4.30;;
77085;SDS011;66014;53.134;18.006;2023-09-12T10:40:41;7.50;;;5.00;;
77085;SDS011;66014;53.134;18.006;2023-09-12T10:43:08;7.00;;;4.30;;
77085;SDS011;66014;53.134;18.006;2023-09-12T10:45:36;7.00;;;4.50;;
77085;SDS011;66014;53.134;18.006;2023-09-12T10:48:03;4.70;;;4.10;;
77085;SDS011;66014;53.134;18.006;2023-09-12T10:50:30;6.40;;;4.80;;
77085;SDS011;66014;53.134;18.006;2023-09-12T10:53:11;4.80;;;4.30;;
77085;SDS011;66014;53.134;18.006;2023-09-12T10:58:08;6.30;;;4.20;;
77085;SDS011;66014;53.134;18.006;2023-09-12T11:00:38;8.30;;;4.40;;
77085;SDS011;66014;53.134;18.006;2023-09-12T11:03:35;7.60;;;4.00;;
77085;SDS011;66014;53.134;18.006;2023-09-12T11:06:01;5.70;;;3.70;;
77085;SDS011;66014;53.134;18.006;2023-09-12T11:08:35;5.10;;;4.20;;
77085;SDS011;66014;53.134;18.006;2023-09-12T11:11:21;5.60;;;4.00;;
77085;SDS011;66014;53.134;18.006;2023-09-12T11:14:03;6.80;;;4.60;;
77085;SDS011;66014;53.134;18.006;2023-09-12T11:16:29;5.30;;;4.30;;
77085;SDS011;66014;53.134;18.006;2023-09-12T11:21:45;7.30;;;4.30;;
77085;SDS011;66014;53.134;18.006;2023-09-12T11:24:12;6.30;;;4.30;;
77085;SDS011;66014;53.134;18.006;2023-09-12T11:26:58;7.90;;;4.40;;
77085;SDS011;66014;53.134;18.006;2023-09-12T11:29:26;7.60;;;4.70;;
77085;SDS011;66014;53.134;18.006;2023-09-12T11:34:51;5.70;;;4.10;;
77085;SDS011;66014;53.134;18.006;2023-09-12T11:37:33;7.20;;;5.00;;
77085;SDS011;66014;53.134;18.006;2023-09-12T11:40:15;5.50;;;4.20;;
77085;SDS011;66014;53.134;18.006;2023-09-12T11:42:43;5.80;;;4.40;;
77085;SDS011;66014;53.134;18.006;2023-09-12T11:45:10;6.30;;;4.30;;
77085;SDS011;66014;53.134;18.006;2023-09-12T11:47:43;5.30;;;4.50;;
77085;SDS011;66014;53.134;18.006;2023-09-12T11:53:02;9.00;;;4.50;;
77085;SDS011;66014;53.134;18.006;2023-09-12T11:55:30;7.00;;;4.80;;
77085;SDS011;66014;53.134;18.006;2023-09-12T11:57:58;7.60;;;4.90;;
77085;SDS011;66014;53.134;18.006;2023-09-12T12:00:24;7.70;;;4.90;;
77085;SDS011;66014;53.134;18.006;2023-09-12T12:02:52;5.30;;;4.50;;
77085;SDS011;66014;53.134;18.006;2023-09-12T12:05:20;6.40;;;4.20;;
77085;SDS011;66014;53.134;18.006;2023-09-12T12:07:58;6.70;;;4.80;;
77085;SDS011;66014;53.134;18.006;2023-09-12T12:10:42;6.60;;;4.40;;
77085;SDS011;66014;53.134;18.006;2023-09-12T12:13:11;8.20;;;5.00;;
77085;SDS011;66014;53.134;18.006;2023-09-12T12:15:41;6.30;;;4.80;;
77085;SDS011;66014;53.134;18.006;2023-09-12T12:18:07;7.70;;;4.60;;
77085;SDS011;66014;53.134;18.006;2023-09-12T12:20:34;7.10;;;5.00;;
77085;SDS011;66014;53.134;18.006;2023-09-12T12:23:01;5.90;;;4.60;;
77085;SDS011;66014;53.134;18.006;2023-09-12T12:25:26;6.50;;;5.20;;
77085;SDS011;66014;53.134;18.006;2023-09-12T12:28:00;7.00;;;5.20;;
77085;SDS011;66014;53.134;18.006;2023-09-12T12:30:29;7.80;;;4.70;;
77085;SDS011;66014;53.134;18.006;2023-09-12T12:32:57;7.00;;;4.80;;
77085;SDS011;66014;53.134;18.006;2023-09-12T12:35:26;10.50;;;5.30;;
77085;SDS011;66014;53.134;18.006;2023-09-12T12:37:53;5.80;;;4.70;;
77085;SDS011;66014;53.134;18.006;2023-09-12T12:40:23;7.90;;;5.00;;
77085;SDS011;66014;53.134;18.006;2023-09-12T12:42:50;10.10;;;7.20;;
77085;SDS011;66014;53.134;18.006;2023-09-12T12:45:20;7.80;;;4.90;;
77085;SDS011;66014;53.134;18.006;2023-09-12T12:47:59;8.80;;;4.90;;
77085;SDS011;66014;53.134;18.006;2023-09-12T12:53:42;5.40;;;4.50;;
77085;SDS011;66014;53.134;18.006;2023-09-12T12:58:34;10.50;;;5.40;;
77085;SDS011;66014;53.134;18.006;2023-09-12T13:01:00;6.50;;;4.90;;
77085;SDS011;66014;53.134;18.006;2023-09-12T13:03:26;6.60;;;4.30;;
77085;SDS011;66014;53.134;18.006;2023-09-12T13:05:52;6.30;;;4.60;;
77085;SDS011;66014;53.134;18.006;2023-09-12T13:08:24;6.10;;;4.50;;
77085;SDS011;66014;53.134;18.006;2023-09-12T13:10:50;6.30;;;4.60;;
77085;SDS011;66014;53.134;18.006;2023-09-12T13:13:16;7.40;;;4.90;;
77085;SDS011;66014;53.134;18.006;2023-09-12T13:15:44;7.50;;;4.60;;
77085;SDS011;66014;53.134;18.006;2023-09-12T13:18:10;6.90;;;5.20;;
77085;SDS011;66014;53.134;18.006;2023-09-12T13:20:36;7.70;;;5.10;;
77085;SDS011;66014;53.134;18.006;2023-09-12T13:23:04;8.80;;;5.90;;
77085;SDS011;66014;53.134;18.006;2023-09-12T13:25:30;10.00;;;5.80;;
77085;SDS011;66014;53.134;18.006;2023-09-12T13:27:57;5.50;;;4.50;;
77085;SDS011;66014;53.134;18.006;2023-09-12T13:30:23;9.20;;;5.00;;
77085;SDS011;66014;53.134;18.006;2023-09-12T13:32:49;8.50;;;5.20;;
77085;SDS011;66014;53.134;18.006;2023-09-12T13:35:15;6.30;;;5.00;;
77085;SDS011;66014;53.134;18.006;2023-09-12T13:37:42;6.80;;;4.80;;
77085;SDS011;66014;53.134;18.006;2023-09-12T13:40:09;5.90;;;4.60;;
77085;SDS011;66014;53.134;18.006;2023-09-12T13:42:35;7.40;;;4.70;;
77085;SDS011;66014;53.134;18.006;2023-09-12T13:45:01;8.60;;;4.70;;
77085;SDS011;66014;53.134;18.006;2023-09-12T13:47:27;10.30;;;5.30;;
77085;SDS011;66014;53.134;18.006;2023-09-12T13:49:52;6.30;;;5.10;;
77085;SDS011;66014;53.134;18.006;2023-09-12T13:52:21;7.90;;;5.00;;
77085;SDS011;66014;53.134;18.006;2023-09-12T13:54:48;8.50;;;5.80;;
77085;SDS011;66014;53.134;18.006;2023-09-12T13:57:15;8.20;;;4.80;;
77085;SDS011;66014;53.134;18.006;2023-09-12T13:59:42;8.20;;;5.00;;
77085;SDS011;66014;53.134;18.006;2023-09-12T14:02:08;7.60;;;4.80;;
77085;SDS011;66014;53.134;18.006;2023-09-12T14:04:33;7.20;;;4.90;;
77085;SDS011;66014;53.134;18.006;2023-09-12T14:07:00;7.10;;;4.80;;
77085;SDS011;66014;53.134;18.006;2023-09-12T14:09:26;38.10;;;22.20;;
77085;SDS011;66014;53.134;18.006;2023-09-12T14:11:51;11.00;;;7.70;;
77085;SDS011;66014;53.134;18.006;2023-09-12T14:14:18;8.30;;;6.00;;
77085;SDS011;66014;53.134;18.006;2023-09-12T14:16:44;13.00;;;8.50;;
77085;SDS011;66014;53.134;18.006;2023-09-12T14:19:11;12.90;;;6.00;;
77085;SDS011;66014;53.134;18.006;2023-09-12T14:21:37;12.90;;;5.20;;
77085;SDS011;66014;53.134;18.006;2023-09-12T14:24:03;6.30;;;4.90;;
77085;SDS011;66014;53.134;18.006;2023-09-12T14:26:33;8.00;;;5.50;;
77085;SDS011;66014;53.134;18.006;2023-09-12T14:28:59;6.90;;;4.90;;
77085;SDS011;66014;53.134;18.006;2023-09-12T14:31:24;9.40;;;5.60;;
77085;SDS011;66014;53.134;18.006;2023-09-12T14:33:50;8.40;;;5.40;;
77085;SDS011;66014;53.134;18.006;2023-09-12T14:36:18;7.40;;;4.90;;
77085;SDS011;66014;53.134;18.006;2023-09-12T14:38:44;8.90;;;5.10;;
77085;SDS011;66014;53.134;18.006;2023-09-12T14:41:12;8.30;;;4.80;;
77085;SDS011;66014;53.134;18.006;2023-09-12T14:43:38;7.10;;;4.90;;
77085;SDS011;66014;53.134;18.006;2023-09-12T14:46:04;10.50;;;4.70;;
77085;SDS011;66014;53.134;18.006;2023-09-12T14:48:31;7.10;;;4.10;;
77085;SDS011;66014;53.134;18.006;2023-09-12T14:50:59;8.00;;;5.00;;
77085;SDS011;66014;53.134;18.006;2023-09-12T14:53:26;8.70;;;4.70;;
77085;SDS011;66014;53.134;18.006;2023-09-12T14:55:53;5.90;;;4.70;;
77085;SDS011;66014;53.134;18.006;2023-09-12T14:58:19;6.00;;;4.80;;
77085;SDS011;66014;53.134;18.006;2023-09-12T15:00:45;6.80;;;4.40;;
77085;SDS011;66014;53.134;18.006;2023-09-12T15:03:11;6.90;;;4.40;;
77085;SDS011;66014;53.134;18.006;2023-09-12T15:05:37;7.70;;;5.10;;
77085;SDS011;66014;53.134;18.006;2023-09-12T15:08:03;6.20;;;4.70;;
77085;SDS011;66014;53.134;18.006;2023-09-12T15:10:30;7.50;;;4.40;;
77085;SDS011;66014;53.134;18.006;2023-09-12T15:12:56;7.10;;;5.00;;
77085;SDS011;66014;53.134;18.006;2023-09-12T15:15:22;7.00;;;4.70;;
77085;SDS011;66014;53.134;18.006;2023-09-12T15:17:48;7.70;;;5.00;;
77085;SDS011;66014;53.134;18.006;2023-09-12T15:20:14;7.10;;;5.10;;
77085;SDS011;66014;53.134;18.006;2023-09-12T15:22:41;7.30;;;4.90;;
77085;SDS011;66014;53.134;18.006;2023-09-12T15:25:09;7.10;;;5.10;;
77085;SDS011;66014;53.134;18.006;2023-09-12T15:27:34;6.40;;;4.80;;